createdAt,value
2022-12-23T00:01:56.251Z,94.88
2022-12-23T00:04:26.749Z,79.90
2022-12-23T00:06:56.946Z,98.57
2022-12-23T00:09:27.140Z,88.25
2022-12-23T00:12:09.577Z,90.30
2022-12-23T00:14:54.812Z,82.40
2022-12-23T00:17:25.230Z,95.25
2022-12-23T00:19:55.556Z,101.03
2022-12-23T00:22:45.947Z,92.88
2022-12-23T00:25:16.778Z,94.32
2022-12-23T00:28:01.584Z,93.82
2022-12-23T00:30:34.564Z,98.57
2022-12-23T00:33:04.820Z,97.55
2022-12-23T00:35:35.222Z,87.95
2022-12-23T00:38:05.471Z,88.28
2022-12-23T00:40:48.546Z,89.43
2022-12-23T00:43:18.732Z,83.82
2022-12-23T00:45:51.701Z,88.82
2022-12-23T00:48:34.568Z,98.07
2022-12-23T00:51:04.970Z,86.95
2022-12-23T00:53:37.419Z,87.95
2022-12-23T00:56:08.710Z,92.15
2022-12-23T00:58:38.998Z,94.75
2022-12-23T01:01:24.333Z,89.28
2022-12-23T01:04:07.125Z,99.60
2022-12-23T01:06:40.382Z,89.50
2022-12-23T01:09:10.843Z,104.80
2022-12-23T01:11:43.885Z,102.80
2022-12-23T01:14:14.059Z,104.72
2022-12-23T01:16:48.156Z,96.68
2022-12-23T01:19:19.521Z,100.50
2022-12-23T01:21:49.864Z,92.30
2022-12-23T01:24:20.109Z,108.97
2022-12-23T01:26:50.318Z,99.18
2022-12-23T01:29:20.566Z,92.45
2022-12-23T01:31:53.431Z,88.35
2022-12-23T01:34:23.767Z,97.28
2022-12-23T01:36:53.955Z,102.93
2022-12-23T01:39:24.168Z,94.55
2022-12-23T01:42:06.866Z,95.57
2022-12-23T01:44:52.686Z,99.97
2022-12-23T01:47:41.834Z,90.47
2022-12-23T01:50:17.838Z,89.15
2022-12-23T01:52:53.287Z,87.63
2022-12-23T01:55:28.116Z,89.47
2022-12-23T01:58:03.521Z,80.28
2022-12-23T02:00:47.210Z,91.88
2022-12-23T02:03:32.398Z,90.70
2022-12-23T02:06:23.835Z,81.25
2022-12-23T02:09:07.621Z,73.22
2022-12-23T02:11:50.774Z,80.43
2022-12-23T02:14:48.638Z,82.65
2022-12-23T02:17:28.000Z,85.80
2022-12-23T02:20:42.618Z,79.55
2022-12-23T02:23:49.705Z,78.50
2022-12-23T02:26:50.720Z,78.88
2022-12-23T02:29:49.314Z,63.75
2022-12-23T02:32:27.787Z,80.70
2022-12-23T02:35:06.342Z,79.93
2022-12-23T02:37:41.859Z,87.78
2022-12-23T02:40:17.441Z,79.00
2022-12-23T02:42:52.077Z,80.55
2022-12-23T02:45:29.579Z,76.70
2022-12-23T02:48:08.422Z,73.05
2022-12-23T02:50:42.089Z,84.13
2022-12-23T02:53:17.885Z,78.07
2022-12-23T02:55:56.319Z,73.55
2022-12-23T02:58:31.185Z,80.13
2022-12-23T03:01:04.190Z,78.38
2022-12-23T03:03:38.500Z,87.83
2022-12-23T03:06:20.298Z,80.25
2022-12-23T03:08:52.468Z,81.80
2022-12-23T03:11:22.952Z,82.55
2022-12-23T03:14:09.002Z,83.05
2022-12-23T03:16:51.296Z,81.35
2022-12-23T03:19:35.350Z,75.32
2022-12-23T03:22:13.626Z,84.53
2022-12-23T03:24:50.403Z,81.10
2022-12-23T03:27:29.001Z,81.38
2022-12-23T03:30:06.835Z,73.18
2022-12-23T03:32:40.757Z,79.05
2022-12-23T03:35:17.375Z,73.70
2022-12-23T03:37:51.677Z,77.07
2022-12-23T03:40:28.041Z,83.00
2022-12-23T03:43:04.063Z,74.40
2022-12-23T03:45:40.722Z,82.68
2022-12-23T03:48:17.801Z,71.80
2022-12-23T03:50:55.677Z,74.28
2022-12-23T03:53:32.579Z,79.55
2022-12-23T03:56:08.876Z,83.00
2022-12-23T03:58:42.688Z,77.20
2022-12-23T04:01:20.014Z,69.95
2022-12-23T04:04:00.433Z,67.25
2022-12-23T04:06:39.026Z,75.10
2022-12-23T04:09:12.055Z,67.63
2022-12-23T04:11:45.025Z,75.97
2022-12-23T04:14:19.985Z,68.88
2022-12-23T04:16:53.055Z,73.20
2022-12-23T04:19:23.443Z,64.50
2022-12-23T04:21:58.719Z,73.55
2022-12-23T04:24:28.936Z,75.90
2022-12-23T04:26:59.065Z,71.45
2022-12-23T04:29:29.240Z,67.85
2022-12-23T04:31:59.520Z,69.45
2022-12-23T04:34:29.888Z,75.68
2022-12-23T04:37:02.969Z,80.53
2022-12-23T04:39:33.178Z,78.90
2022-12-23T04:42:03.367Z,80.05
2022-12-23T04:44:33.530Z,73.53
2022-12-23T04:47:03.894Z,79.07
2022-12-23T04:49:35.454Z,69.82
2022-12-23T04:52:08.541Z,74.75
2022-12-23T04:54:45.515Z,70.53
2022-12-23T04:57:16.596Z,75.60
2022-12-23T04:59:47.299Z,70.25
2022-12-23T05:02:17.561Z,79.45
2022-12-23T05:04:47.779Z,76.05
2022-12-23T05:07:20.635Z,77.75
2022-12-23T05:09:54.447Z,72.20
2022-12-23T05:12:24.570Z,76.03
2022-12-23T05:14:54.800Z,85.80
2022-12-23T05:17:25.143Z,74.13
2022-12-23T05:19:59.126Z,78.85
2022-12-23T05:22:31.916Z,76.20
2022-12-23T05:25:02.042Z,83.38
2022-12-23T05:27:32.276Z,71.45
2022-12-23T05:30:09.327Z,79.63
2022-12-23T05:32:44.740Z,75.75
2022-12-23T05:35:14.923Z,67.28
2022-12-23T05:37:47.814Z,80.75
2022-12-23T05:40:24.094Z,84.63
2022-12-23T05:43:00.007Z,88.20
2022-12-23T05:45:30.364Z,85.47
2022-12-23T05:48:03.514Z,84.22
2022-12-23T05:50:33.880Z,80.90
2022-12-23T05:53:06.843Z,91.60
2022-12-23T05:55:37.695Z,83.40
2022-12-23T05:58:08.021Z,81.30
2022-12-23T06:00:43.549Z,80.47
2022-12-23T06:03:14.074Z,90.78
2022-12-23T06:05:44.348Z,75.50
2022-12-23T06:08:17.087Z,83.10
2022-12-23T06:10:47.436Z,85.35
2022-12-23T06:13:17.770Z,96.03
2022-12-23T06:15:54.335Z,80.40
2022-12-23T06:18:24.551Z,83.50
2022-12-23T06:20:55.278Z,89.43
2022-12-23T06:23:28.031Z,88.47
2022-12-23T06:26:03.243Z,93.47
2022-12-23T06:28:34.518Z,81.32
2022-12-23T06:31:04.670Z,84.25
2022-12-23T06:33:34.888Z,94.88
2022-12-23T06:36:05.183Z,100.45
2022-12-23T06:38:38.051Z,98.45
2022-12-23T06:41:08.773Z,94.70
2022-12-23T06:43:38.945Z,91.63
2022-12-23T06:46:09.192Z,99.32
2022-12-23T06:48:42.276Z,94.40
2022-12-23T06:51:13.286Z,93.43
2022-12-23T06:53:46.209Z,102.88
2022-12-23T06:56:16.488Z,100.70
2022-12-23T06:58:47.176Z,99.82
2022-12-23T07:01:17.525Z,110.43
2022-12-23T07:03:50.262Z,100.55
2022-12-23T07:06:20.477Z,94.50
2022-12-23T07:08:53.634Z,97.20
2022-12-23T07:11:23.793Z,95.35
2022-12-23T07:13:54.152Z,107.68
2022-12-23T07:16:24.354Z,101.75
2022-12-23T07:18:54.675Z,113.38
2022-12-23T07:21:29.372Z,104.22
2022-12-23T07:24:02.693Z,105.47
2022-12-23T07:26:32.842Z,116.90
2022-12-23T07:29:04.403Z,105.93
2022-12-23T07:31:37.126Z,112.20
2022-12-23T07:34:11.220Z,106.05
2022-12-23T07:36:41.394Z,110.88
2022-12-23T07:39:14.272Z,110.82
2022-12-23T07:41:44.486Z,111.53
2022-12-23T07:44:14.750Z,106.45
2022-12-23T07:46:45.232Z,99.22
2022-12-23T07:49:15.590Z,97.50
2022-12-23T07:51:45.763Z,97.30
2022-12-23T07:54:18.637Z,110.72
2022-12-23T07:56:48.851Z,94.75
2022-12-23T07:59:19.274Z,95.63
2022-12-23T08:01:49.901Z,97.30
2022-12-23T08:04:20.727Z,106.97
2022-12-23T08:06:50.969Z,110.40
2022-12-23T08:09:24.104Z,107.85
2022-12-23T08:11:54.514Z,112.43
2022-12-23T08:14:24.653Z,129.73
2022-12-23T08:16:54.907Z,107.50
2022-12-23T08:19:25.114Z,104.97
2022-12-23T08:21:55.545Z,112.40
2022-12-23T08:24:28.328Z,111.38
2022-12-23T08:26:58.549Z,110.97
2022-12-23T08:29:35.781Z,116.75
2022-12-23T08:32:07.188Z,119.05
2022-12-23T08:34:37.843Z,133.63
2022-12-23T08:37:07.997Z,133.13
2022-12-23T08:39:42.422Z,122.18
2022-12-23T08:42:12.601Z,124.32
2022-12-23T08:44:42.958Z,239.73
2022-12-23T08:47:13.152Z,195.07
2022-12-23T08:49:47.060Z,195.38
2022-12-23T08:52:17.732Z,102.65
2022-12-23T08:54:51.204Z,191.57
2022-12-23T08:57:21.429Z,125.22
2022-12-23T08:59:51.929Z,142.95
2022-12-23T09:02:22.308Z,109.47
2022-12-23T09:04:52.705Z,85.03
2022-12-23T09:07:22.941Z,97.40
2022-12-23T09:09:58.610Z,161.82
2022-12-23T09:12:32.003Z,159.35
2022-12-23T09:15:02.404Z,118.68
2022-12-23T09:17:33.562Z,136.18
2022-12-23T09:20:05.188Z,125.68
2022-12-23T09:22:36.144Z,207.23
2022-12-23T09:25:10.135Z,99.32
2022-12-23T09:27:44.071Z,117.85
2022-12-23T09:30:15.845Z,91.60
2022-12-23T09:32:46.086Z,80.53
2022-12-23T09:35:16.416Z,86.68
2022-12-23T09:37:46.675Z,93.35
2022-12-23T09:40:22.593Z,109.50
2022-12-23T09:43:01.953Z,96.50
2022-12-23T09:45:47.411Z,109.75
2022-12-23T09:48:22.379Z,81.50
2022-12-23T09:50:52.592Z,101.82
2022-12-23T09:53:24.710Z,95.22
2022-12-23T09:56:05.189Z,106.22
2022-12-23T09:58:45.845Z,87.47
2022-12-23T10:01:22.452Z,96.78
2022-12-23T10:04:26.686Z,85.43
2022-12-23T10:07:06.617Z,90.57
2022-12-23T10:09:41.063Z,89.57
2022-12-23T10:12:27.755Z,94.47
2022-12-23T10:15:04.411Z,81.88
2022-12-23T10:17:40.227Z,73.30
2022-12-23T10:20:21.046Z,91.38
2022-12-23T10:22:51.497Z,74.13
2022-12-23T10:25:31.275Z,77.60
2022-12-23T10:28:04.300Z,81.85
2022-12-23T10:31:05.624Z,98.43
2022-12-23T10:33:40.354Z,64.63
2022-12-23T10:36:15.836Z,102.00
2022-12-23T10:38:57.313Z,93.32
2022-12-23T10:41:40.910Z,112.30
2022-12-23T10:44:39.560Z,57.83
2022-12-23T10:47:18.587Z,121.37
2022-12-23T10:50:02.489Z,102.15
2022-12-23T10:52:37.484Z,138.15
2022-12-23T10:55:08.774Z,103.85
2022-12-23T10:57:39.187Z,117.10
2022-12-23T11:00:21.287Z,135.23
2022-12-23T11:03:04.680Z,100.53
2022-12-23T11:05:37.320Z,109.35
2022-12-23T11:08:08.400Z,100.75
2022-12-23T11:10:39.699Z,112.75
2022-12-23T11:13:10.046Z,116.15
2022-12-23T11:15:44.191Z,115.13
2022-12-23T11:18:21.202Z,102.57
2022-12-23T11:21:06.105Z,114.82
2022-12-23T11:23:38.831Z,106.60
2022-12-23T11:26:12.365Z,83.53
2022-12-23T11:28:50.485Z,92.45
2022-12-23T11:31:32.662Z,102.20
2022-12-23T11:34:07.775Z,124.60
2022-12-23T11:36:38.528Z,92.07
2022-12-23T11:39:27.271Z,143.40
2022-12-23T11:42:07.859Z,131.73
2022-12-23T11:44:44.387Z,154.57
2022-12-23T11:47:29.449Z,129.02
2022-12-23T11:50:03.167Z,88.47
2022-12-23T11:52:35.445Z,119.50
2022-12-23T11:55:09.256Z,125.07
2022-12-23T11:57:45.455Z,159.40
2022-12-23T12:00:23.642Z,92.57
2022-12-23T12:02:58.081Z,133.15
2022-12-23T12:05:34.375Z,104.50
2022-12-23T12:08:08.683Z,122.97
2022-12-23T12:10:42.418Z,110.95
2022-12-23T12:13:27.023Z,138.52
2022-12-23T12:16:06.624Z,120.75
2022-12-23T12:18:42.128Z,136.88
2022-12-23T12:21:17.263Z,122.45
2022-12-23T12:24:08.319Z,133.82
2022-12-23T12:26:43.600Z,81.33
2022-12-23T12:29:21.491Z,103.25
2022-12-23T12:31:54.293Z,73.63
2022-12-23T12:34:52.534Z,70.60
2022-12-23T12:37:31.356Z,104.35
2022-12-23T12:40:04.296Z,101.85
2022-12-23T12:42:40.698Z,83.15
2022-12-23T12:45:19.769Z,93.72
2022-12-23T12:48:13.082Z,86.28
2022-12-23T12:50:58.163Z,78.43
2022-12-23T12:53:31.134Z,88.57
2022-12-23T12:56:09.603Z,87.13
2022-12-23T12:58:40.679Z,101.95
2022-12-23T13:01:28.125Z,65.30
2022-12-23T13:04:28.968Z,72.25
2022-12-23T13:07:12.515Z,92.82
2022-12-23T13:09:57.336Z,78.00
2022-12-23T13:12:41.442Z,79.57
2022-12-23T13:15:23.252Z,74.72
2022-12-23T13:18:10.088Z,111.28
2022-12-23T13:20:47.464Z,134.43
2022-12-23T13:23:45.480Z,99.20
2022-12-23T13:26:30.072Z,110.43
2022-12-23T13:29:20.349Z,133.55
2022-12-23T13:31:58.042Z,84.22
2022-12-23T13:34:42.235Z,85.53
2022-12-23T13:37:31.821Z,91.80
2022-12-23T13:40:22.699Z,108.20
2022-12-23T13:42:58.699Z,142.10
2022-12-23T13:45:36.332Z,149.98
2022-12-23T13:48:24.680Z,123.72
2022-12-23T13:51:02.837Z,114.15
2022-12-23T13:53:50.258Z,103.13
2022-12-23T13:56:30.110Z,155.85
2022-12-23T13:59:01.018Z,111.93
2022-12-23T14:01:38.787Z,142.73
2022-12-23T14:04:39.562Z,98.82
2022-12-23T14:07:22.459Z,122.57
2022-12-23T14:09:56.160Z,79.03
2022-12-23T14:12:32.151Z,70.47
2022-12-23T14:15:35.420Z,67.60
2022-12-23T14:18:22.086Z,71.07
2022-12-23T14:21:05.161Z,74.80
2022-12-23T14:23:50.219Z,82.78
2022-12-23T14:26:36.181Z,69.90
2022-12-23T14:29:31.172Z,63.78
2022-12-23T14:32:01.846Z,76.38
2022-12-23T14:34:34.453Z,82.07
2022-12-23T14:37:36.212Z,96.85
2022-12-23T14:40:41.246Z,80.38
2022-12-23T14:43:34.100Z,100.35
2022-12-23T14:46:08.586Z,64.10
2022-12-23T14:49:38.473Z,80.07
2022-12-23T14:52:44.302Z,73.97
2022-12-23T14:55:45.367Z,60.28
2022-12-23T14:58:48.261Z,75.47
2022-12-23T15:01:24.487Z,53.10
2022-12-23T15:04:01.342Z,55.17
2022-12-23T15:06:38.341Z,66.80
2022-12-23T15:09:10.347Z,59.90
2022-12-23T15:11:43.740Z,64.03
2022-12-23T15:14:22.901Z,66.00
2022-12-23T15:16:55.884Z,56.38
2022-12-23T15:19:28.957Z,60.10
2022-12-23T15:22:22.272Z,58.60
2022-12-23T15:24:56.073Z,63.13
2022-12-23T15:27:28.750Z,66.15
2022-12-23T15:32:33.661Z,48.92
2022-12-23T15:35:07.998Z,44.17
2022-12-23T15:37:38.393Z,63.85
2022-12-23T15:40:25.219Z,55.75
2022-12-23T15:42:55.964Z,47.65
2022-12-23T15:45:41.700Z,53.13
2022-12-23T15:48:27.104Z,49.95
2022-12-23T15:51:01.100Z,51.70
2022-12-23T15:56:09.789Z,47.08
2022-12-23T15:58:45.381Z,46.10
2022-12-23T16:01:18.459Z,45.10
2022-12-23T16:03:57.608Z,49.30
2022-12-23T16:06:32.085Z,47.78
2022-12-23T16:09:04.109Z,43.17
2022-12-23T16:11:45.136Z,45.78
2022-12-23T16:14:36.351Z,44.38
2022-12-23T16:17:18.677Z,50.75
2022-12-23T16:19:53.727Z,52.38
2022-12-23T16:22:30.869Z,46.72
2022-12-23T16:25:13.566Z,42.53
2022-12-23T16:27:46.232Z,44.45
2022-12-23T16:30:20.278Z,41.53
2022-12-23T16:32:54.873Z,44.45
2022-12-23T16:35:40.272Z,52.67
2022-12-23T16:38:21.621Z,42.42
2022-12-23T16:40:53.696Z,42.95
2022-12-23T16:43:26.187Z,40.15
2022-12-23T16:45:59.300Z,43.65
2022-12-23T16:48:34.542Z,32.45
2022-12-23T16:51:14.471Z,39.03
2022-12-23T16:53:44.747Z,52.35
2022-12-23T16:56:15.849Z,56.85
2022-12-23T16:58:49.716Z,54.08
2022-12-23T17:01:25.016Z,54.50
2022-12-23T17:03:56.070Z,42.95
2022-12-23T17:06:29.720Z,50.80
2022-12-23T17:09:03.018Z,48.17
2022-12-23T17:11:40.790Z,57.33
2022-12-23T17:14:17.914Z,47.72
2022-12-23T17:16:48.927Z,54.53
2022-12-23T17:19:28.002Z,69.90
2022-12-23T17:22:05.875Z,69.32
2022-12-23T17:24:36.222Z,58.92
2022-12-23T17:27:16.059Z,61.70
2022-12-23T17:29:47.322Z,57.35
2022-12-23T17:32:21.481Z,53.72
2022-12-23T17:34:51.706Z,62.03
2022-12-23T17:37:25.978Z,57.70
2022-12-23T17:39:56.518Z,49.60
2022-12-23T17:42:27.005Z,56.92
2022-12-23T17:44:57.307Z,50.83
2022-12-23T17:47:27.752Z,55.38
2022-12-23T17:50:01.066Z,56.90
2022-12-23T17:52:33.986Z,53.25
2022-12-23T17:55:04.232Z,54.80
2022-12-23T17:57:34.503Z,52.28
2022-12-23T18:00:07.755Z,53.72
2022-12-23T18:02:38.372Z,62.53
2022-12-23T18:05:22.720Z,65.53
2022-12-23T18:07:56.593Z,67.35
2022-12-23T18:13:04.797Z,59.33
2022-12-23T18:15:38.827Z,59.58
2022-12-23T18:18:27.307Z,60.40
2022-12-23T18:21:10.399Z,54.53
2022-12-23T18:23:43.300Z,63.47
2022-12-23T18:26:16.618Z,60.38
2022-12-23T18:28:47.357Z,53.63
2022-12-23T18:31:20.482Z,50.63
2022-12-23T18:33:51.166Z,59.83
2022-12-23T18:36:27.955Z,48.67
2022-12-23T18:39:00.935Z,48.55
2022-12-23T18:41:31.233Z,50.80
2022-12-23T18:44:01.509Z,44.63
2022-12-23T18:46:31.877Z,45.60
2022-12-23T18:49:02.307Z,37.55
2022-12-23T18:51:32.592Z,43.00
2022-12-23T18:54:05.500Z,38.47
2022-12-23T18:56:35.706Z,43.88
2022-12-23T18:59:06.047Z,45.22
2022-12-23T19:01:36.441Z,41.38
2022-12-23T19:04:06.824Z,50.00
2022-12-23T19:06:40.487Z,39.83
2022-12-23T19:09:18.581Z,58.45
2022-12-23T19:11:51.244Z,60.50
2022-12-23T19:14:21.439Z,56.75
2022-12-23T19:16:52.702Z,44.20
2022-12-23T19:19:24.072Z,42.60
2022-12-23T19:21:54.544Z,33.05
2022-12-23T19:24:27.458Z,37.75
2022-12-23T19:26:57.676Z,39.70
2022-12-23T19:29:27.944Z,37.45
2022-12-23T19:31:58.377Z,37.60
2022-12-23T19:34:28.682Z,30.95
2022-12-23T19:36:58.990Z,29.48
2022-12-23T19:39:34.463Z,32.25
2022-12-23T19:42:04.797Z,28.40
2022-12-23T19:44:35.115Z,35.05
2022-12-23T19:47:05.781Z,33.17
2022-12-23T19:49:37.172Z,29.33
2022-12-23T19:52:08.236Z,33.35
2022-12-23T19:54:41.032Z,33.10
2022-12-23T19:57:11.334Z,29.38
2022-12-23T19:59:41.580Z,27.27
2022-12-23T20:02:16.838Z,33.67
2022-12-23T20:04:47.379Z,30.20
2022-12-23T20:07:19.948Z,33.17
2022-12-23T20:09:54.258Z,29.05
2022-12-23T20:12:26.582Z,30.48
2022-12-23T20:14:59.530Z,35.08
2022-12-23T20:17:29.809Z,38.85
2022-12-23T20:20:01.287Z,33.35
2022-12-23T20:22:31.638Z,29.80
2022-12-23T20:25:04.489Z,31.75
2022-12-23T20:27:35.574Z,37.33
2022-12-23T20:30:13.631Z,38.00
2022-12-23T20:32:44.404Z,33.72
2022-12-23T20:35:14.661Z,36.58
2022-12-23T20:37:44.823Z,43.13
2022-12-23T20:40:19.431Z,37.90
2022-12-23T20:42:49.687Z,42.95
2022-12-23T20:45:21.506Z,38.58
2022-12-23T20:47:54.262Z,44.58
2022-12-23T20:50:27.134Z,36.95
2022-12-23T20:52:57.309Z,44.63
2022-12-23T20:55:30.295Z,38.22
2022-12-23T20:58:20.703Z,38.35
2022-12-23T21:00:51.253Z,34.08
2022-12-23T21:03:21.574Z,41.47
2022-12-23T21:05:51.783Z,45.53
2022-12-23T21:08:22.090Z,32.88
2022-12-23T21:10:58.543Z,30.05
2022-12-23T21:13:28.766Z,36.58
2022-12-23T21:16:03.727Z,39.33
2022-12-23T21:18:34.098Z,37.40
2022-12-23T21:21:05.812Z,36.45
2022-12-23T21:23:39.981Z,39.95
2022-12-23T21:26:15.675Z,39.13
2022-12-23T21:28:48.584Z,33.03
2022-12-23T21:31:21.733Z,31.45
2022-12-23T21:33:53.366Z,33.97
2022-12-23T21:36:25.129Z,37.90
2022-12-23T21:38:56.333Z,34.25
2022-12-23T21:41:31.374Z,41.58
2022-12-23T21:44:02.931Z,39.08
2022-12-23T21:46:33.268Z,38.08
2022-12-23T21:49:03.720Z,36.63
2022-12-23T21:51:40.197Z,34.83
2022-12-23T21:54:12.072Z,32.78
2022-12-23T21:56:44.822Z,31.50
2022-12-23T21:59:16.830Z,32.97
2022-12-23T22:01:47.183Z,35.53
2022-12-23T22:04:17.479Z,33.25
2022-12-23T22:06:48.518Z,39.72
2022-12-23T22:09:20.725Z,34.90
2022-12-23T22:11:53.628Z,37.65
2022-12-23T22:14:23.890Z,37.53
2022-12-23T22:16:54.207Z,40.25
2022-12-23T22:19:24.532Z,35.67
2022-12-23T22:21:54.892Z,38.45
2022-12-23T22:24:25.216Z,38.60
2022-12-23T22:26:57.986Z,42.78
2022-12-23T22:29:29.133Z,43.08
2022-12-23T22:31:59.489Z,34.22
2022-12-23T22:34:29.813Z,47.67
2022-12-23T22:37:00.146Z,43.10
2022-12-23T22:39:30.407Z,37.47
2022-12-23T22:42:03.280Z,44.00
2022-12-23T22:44:33.451Z,38.70
2022-12-23T22:47:03.779Z,42.65
2022-12-23T22:49:33.975Z,43.53
2022-12-23T22:52:04.231Z,40.45
2022-12-23T22:54:34.582Z,42.78
2022-12-23T22:57:07.578Z,34.33
2022-12-23T22:59:41.407Z,42.88
2022-12-23T23:02:11.745Z,40.65
2022-12-23T23:04:42.381Z,40.95
2022-12-23T23:07:12.659Z,41.70
2022-12-23T23:09:43.719Z,46.95
2022-12-23T23:12:16.875Z,43.30
2022-12-23T23:14:56.158Z,46.80
2022-12-23T23:17:28.440Z,37.85
2022-12-23T23:19:58.949Z,44.60
2022-12-23T23:22:29.290Z,41.10
2022-12-23T23:24:59.708Z,37.40
2022-12-23T23:27:32.496Z,40.65
2022-12-23T23:30:07.878Z,39.38
2022-12-23T23:32:38.460Z,39.53
2022-12-23T23:35:11.827Z,39.90
2022-12-23T23:37:42.168Z,37.00
2022-12-23T23:40:13.904Z,40.28
2022-12-23T23:42:46.862Z,37.67
2022-12-23T23:45:17.383Z,33.10
2022-12-23T23:47:47.663Z,35.22
2022-12-23T23:50:18.245Z,36.55
2022-12-23T23:52:48.663Z,36.75
2022-12-23T23:55:19.066Z,35.47
2022-12-23T23:57:51.809Z,47.10
